Share

Alliance, NE

5:01 AM MDT on April 24, 2014 (GMT -0600)
Alliance Municipal (KAIA) Elev 3930 ft | 42.06 °N, 102.80 °W | Change Station
Active Advisory: Fire Weather Warning

Current weather conditions updated 8 minutes ago

Clear
Clear
32 °F
Feels Like 24 °F
N
10
Wind Variable Wind from West
Sunrise 5:57 AM
Sunset 7:43 PM
Moon Waning Crescent

Today is forecast to be Cooler than yesterday.

Pressure 29.88 in
Visibility 10.0 miles
Clouds Clear
Windchill 24 °F
Dew Point 28 °F
Humidity 85%
Rainfall 0.00 in
Snow Depth Not available.
UV 0 out of 16
Pollen 11.20 out of 12
Air Quality Not available.
Flu Activity Sporadic
METAR KAIA 241053Z AUTO 27009KT 10SM CLR 00/M02 A2990 RMK AO2 SLP118 T00001022 $

More Conditions Fewer Conditions

Pressure 29.88 in
Visibility 10.0 miles
Clouds Clear
Windchill 24 °F
Dew Point 28 °F
Humidity 85%
Rainfall 0.00 in
Snow Depth Not available.
UV 0 out of 16
Pollen 11.20 out of 12
Air Quality Not available.
Flu Activity Sporadic
METAR KAIA 241053Z AUTO 27009KT 10SM CLR 00/M02 A2990 RMK AO2 SLP118 T00001022 $

More Conditions Fewer Conditions

10-Day Weather Forecast

Almanac

Astronomy

Apr. 24, 2014 Rise Set
Actual Time 5:57 AM MDT 7:43 PM MDT
Civil Twilight 5:27 AM MDT 8:12 PM MDT
Nautical Twilight 4:51 AM MDT 8:49 PM MDT
Astronomical Twilight 4:12 AM MDT 9:28 PM MDT
Moon 3:14 AM MDT 2:56 PM MDT
Length of Visible Light 14h 45m
Length of Day
13h 45m
Tomorrow will be 2m 35s longer.
Waning Crescent, 27% of the Moon is Illuminated
Today
Waning Crescent
Apr 29
New
May 6
First Quarter
May 14
Full
May 21
Last Quarter

Today's Extremes

State Highs State Lows

Community

  • Stacked
    Stacked
  • clouds approaching Red Sox Nation
    clouds approaching Red Sox Nation
  • Balance
    Balance
  • Nestled In
    Nestled In
  • Stunning Sunrise
    Stunning Sunrise

WunderPhotos

Upload Photos

1,704,584 photos uploaded!

WunderBlogs® & News

Nearby

Snow Depth

Station Depth Elevation
No new snow has been reported.

Coastal Water Temperatures

Place Temperature
No Stations Reporting

Earthquake Activity

City Distance Mag. Time & Date
No recent earthquake activity has been reported nearby.
Minimum magnitude displayed is 2.5.

Nearby Weather Stations

There are no personal weather stations in this area.

What do you think?

We're not finished. Please let us know what you like, what you don't like, and what you are still missing.